createdAt,value
2017-04-12T12:18:03.214Z,1016.1
2017-04-12T12:23:03.128Z,1016.12
2017-04-12T12:28:03.138Z,1016.17
2017-04-12T12:33:03.008Z,1016.03
2017-04-12T12:38:02.933Z,1016.07
2017-04-12T12:43:02.870Z,1015.9
2017-04-12T12:48:02.870Z,1015.91
2017-04-12T12:53:02.750Z,1015.88
2017-04-12T12:58:02.688Z,1015.82
2017-04-12T13:03:02.641Z,1015.77
2017-04-12T13:08:02.569Z,1015.61
2017-04-12T13:13:02.503Z,1015.57
2017-04-12T13:18:02.442Z,1015.55
2017-04-12T13:23:02.381Z,1015.44
2017-04-12T13:28:02.319Z,1015.37
2017-04-12T13:33:02.261Z,1015.41
2017-04-12T13:38:02.201Z,1015.41
2017-04-12T13:43:02.145Z,1015.46
2017-04-12T13:48:02.081Z,1015.27
2017-04-12T13:53:02.027Z,1015.23
2017-04-12T13:58:01.974Z,1015.12
2017-04-12T14:03:01.911Z,1015.1
2017-04-12T14:08:01.846Z,1015.14
2017-04-12T14:13:01.797Z,1015.13
2017-04-12T14:18:01.721Z,1015.1
2017-04-12T14:23:01.667Z,1015.12
2017-04-12T14:28:01.593Z,1015.22
2017-04-12T14:33:01.533Z,1015.17
2017-04-12T14:38:01.469Z,1015.15
2017-04-12T14:43:01.402Z,1015.11
2017-04-12T14:48:01.354Z,1015.01
2017-04-12T14:53:01.275Z,1014.98
2017-04-12T14:58:01.208Z,1014.89
2017-04-12T15:03:01.144Z,1014.83
2017-04-12T15:08:01.085Z,1014.85
2017-04-12T15:13:01.009Z,1014.83
2017-04-12T15:18:00.940Z,1014.96
2017-04-12T15:23:00.883Z,1014.89
2017-04-12T15:28:00.810Z,1015.17
2017-04-12T15:33:00.741Z,1015.16
2017-04-12T15:38:00.680Z,1015.1
2017-04-12T15:43:00.607Z,1014.96
2017-04-12T15:48:00.543Z,1014.93
2017-04-12T15:53:00.470Z,1014.92
2017-04-12T15:58:00.415Z,1014.88
2017-04-12T16:03:00.345Z,1014.9
2017-04-12T16:08:00.272Z,1014.88
2017-04-12T16:13:00.201Z,1014.84
2017-04-12T16:18:00.144Z,1014.8
2017-04-12T16:23:00.071Z,1014.86
2017-04-12T16:28:00.015Z,1014.8
2017-04-12T16:33:00.041Z,1014.8
